Time;durP1;ratioP1;P1;durP2;ratioP2;P2;SDS_P1;SDS_P2;PMS_P1;PMS_P2;Temp;Humidity;BMP_temperature;BMP_pressure;BME280_temperature;BME280_humidity;BME280_pressure;Samples;Min_cycle;Max_cycle;Signal;HPM_P1;HPM_P2
2022/01/11 00:01:27;;;;;;;10.50;7.73;;;14.50;55.70;;;;;;5065977;28;20450;-82
2022/01/11 00:03:55;;;;;;;9.27;7.00;;;14.50;55.70;;;;;;5066519;28;20449;-84
2022/01/11 00:06:32;;;;;;;12.13;7.50;;;14.50;55.70;;;;;;5065038;28;20534;-82
2022/01/11 00:09:07;;;;;;;12.23;7.43;;;14.40;55.70;;;;;;5062726;28;20485;-83
2022/01/11 00:11:36;;;;;;;10.13;7.40;;;14.50;55.80;;;;;;5050190;28;20438;-82
2022/01/11 00:14:04;;;;;;;14.77;7.97;;;14.40;55.80;;;;;;5065532;28;20453;-83
2022/01/11 00:16:33;;;;;;;9.20;7.10;;;14.40;55.80;;;;;;5064546;28;20508;-83
2022/01/11 00:19:05;;;;;;;11.77;8.07;;;14.40;55.80;;;;;;5064536;28;20473;-83
2022/01/11 00:21:34;;;;;;;11.13;8.03;;;14.40;55.60;;;;;;5065643;28;20462;-83
2022/01/11 00:26:47;;;;;;;10.30;7.20;;;14.40;55.70;;;;;;5063657;28;20458;-86
2022/01/11 00:29:15;;;;;;;11.90;7.97;;;14.40;55.70;;;;;;5064462;28;20463;-83
2022/01/11 00:31:46;;;;;;;11.03;7.57;;;14.40;55.70;;;;;;5058135;28;20482;-84
2022/01/11 00:34:17;;;;;;;9.73;7.00;;;14.40;55.80;;;;;;5047455;28;20432;-83
2022/01/11 00:36:45;;;;;;;11.13;8.50;;;14.40;55.80;;;;;;5047747;28;20494;-85
2022/01/11 00:39:13;;;;;;;11.53;8.00;;;14.40;55.80;;;;;;5061433;28;20469;-85
2022/01/11 00:41:42;;;;;;;11.03;8.30;;;14.40;55.80;;;;;;5066478;28;20469;-82
2022/01/11 00:44:10;;;;;;;9.73;7.70;;;14.30;55.70;;;;;;5067506;28;20453;-85
2022/01/11 00:46:38;;;;;;;11.53;8.40;;;14.30;55.60;;;;;;5057645;28;20473;-83
2022/01/11 00:49:08;;;;;;;11.90;8.50;;;14.30;55.70;;;;;;5066668;28;20557;-83
2022/01/11 00:51:36;;;;;;;12.17;8.27;;;14.30;55.70;;;;;;5065320;28;20453;-84
2022/01/11 00:54:04;;;;;;;10.70;7.47;;;14.30;55.70;;;;;;5066808;28;20438;-83
2022/01/11 00:56:31;;;;;;;11.30;7.77;;;14.30;55.70;;;;;;5066172;28;20512;-82
2022/01/11 00:58:59;;;;;;;11.17;7.93;;;14.30;55.90;;;;;;5066702;28;20442;-83
2022/01/11 01:01:33;;;;;;;10.20;7.30;;;14.30;55.90;;;;;;5068558;28;20438;-83
2022/01/11 01:04:02;;;;;;;14.43;8.47;;;14.30;56.00;;;;;;5056620;28;20554;-83
2022/01/11 01:06:31;;;;;;;10.90;7.80;;;14.20;55.80;;;;;;5064455;28;20506;-82
2022/01/11 01:08:59;;;;;;;12.27;7.57;;;14.30;55.90;;;;;;5066469;28;20443;-85
2022/01/11 01:11:27;;;;;;;13.10;8.00;;;14.30;55.80;;;;;;5068189;28;20468;-83
2022/01/11 01:13:55;;;;;;;11.03;8.20;;;14.30;56.00;;;;;;5066871;28;20518;-85
2022/01/11 01:16:23;;;;;;;10.17;7.40;;;14.30;55.80;;;;;;5069377;28;20442;-83
2022/01/11 01:18:51;;;;;;;9.67;7.70;;;14.30;55.80;;;;;;5065233;28;20481;-83
2022/01/11 01:21:19;;;;;;;10.93;7.77;;;14.30;55.80;;;;;;5064451;28;20485;-82
2022/01/11 01:23:48;;;;;;;9.70;7.73;;;14.30;55.90;;;;;;5067856;28;20450;-84
2022/01/11 01:26:17;;;;;;;9.00;7.00;;;14.30;55.90;;;;;;5066352;28;20481;-83
2022/01/11 01:28:47;;;;;;;9.67;7.57;;;14.30;56.00;;;;;;5067165;28;20447;-83
2022/01/11 01:31:15;;;;;;;11.07;8.07;;;14.30;55.90;;;;;;5065114;28;20517;-82
2022/01/11 01:33:45;;;;;;;11.47;7.37;;;14.30;56.00;;;;;;5064942;28;20514;-82
2022/01/11 01:36:13;;;;;;;11.70;7.63;;;14.30;55.90;;;;;;5060300;28;20447;-83
2022/01/11 01:38:41;;;;;;;10.30;7.43;;;14.30;56.00;;;;;;5069094;28;20443;-81
2022/01/11 01:41:15;;;;;;;8.93;7.20;;;14.20;55.90;;;;;;5067793;28;20463;-83
2022/01/11 01:43:43;;;;;;;11.80;8.07;;;14.20;55.90;;;;;;5068356;28;20457;-83
2022/01/11 01:46:11;;;;;;;11.67;7.93;;;14.20;56.00;;;;;;5069182;28;20462;-82
2022/01/11 01:48:40;;;;;;;10.80;8.30;;;14.20;55.90;;;;;;5068725;28;20456;-82
2022/01/11 01:51:09;;;;;;;10.20;7.50;;;14.20;55.90;;;;;;5069154;28;20466;-83
2022/01/11 01:53:39;;;;;;;10.20;7.40;;;14.20;55.90;;;;;;5066602;28;20474;-81
2022/01/11 01:56:07;;;;;;;11.20;8.10;;;14.20;56.10;;;;;;5068614;28;20434;-82
2022/01/11 01:58:37;;;;;;;10.93;7.77;;;14.20;55.90;;;;;;5068353;28;20439;-81
2022/01/11 02:01:05;;;;;;;10.00;7.30;;;14.10;55.80;;;;;;5069084;28;20470;-82
2022/01/11 02:03:38;;;;;;;11.50;8.37;;;14.20;56.50;;;;;;5068280;28;20448;-82
2022/01/11 02:06:06;;;;;;;11.40;8.17;;;14.10;55.70;;;;;;5068379;28;20470;-84
2022/01/11 02:08:35;;;;;;;9.13;7.53;;;14.10;55.80;;;;;;5067113;28;20462;-82
2022/01/11 02:11:03;;;;;;;11.83;7.53;;;14.20;56.00;;;;;;5068188;28;20481;-83
2022/01/11 02:13:31;;;;;;;12.83;7.90;;;14.10;55.90;;;;;;5068851;28;20464;-82
2022/01/11 02:16:02;;;;;;;11.53;8.03;;;14.20;55.90;;;;;;5068590;28;20446;-82
2022/01/11 02:18:31;;;;;;;11.20;7.60;;;14.10;55.90;;;;;;5067957;28;20458;-82
2022/01/11 02:21:00;;;;;;;11.87;7.70;;;14.10;55.90;;;;;;5067916;28;20490;-82
2022/01/11 02:23:29;;;;;;;10.00;7.47;;;14.10;56.00;;;;;;5068319;28;20447;-82
2022/01/11 02:25:57;;;;;;;10.93;7.80;;;14.10;55.80;;;;;;5060764;28;20482;-83
2022/01/11 02:28:26;;;;;;;9.07;7.43;;;14.10;55.80;;;;;;5059606;28;20434;-82
2022/01/11 02:30:55;;;;;;;11.67;8.40;;;14.10;55.90;;;;;;5068174;28;20501;-82
2022/01/11 02:33:32;;;;;;;9.60;7.60;;;14.20;56.10;;;;;;5068184;28;20431;-84
2022/01/11 02:36:02;;;;;;;9.30;7.23;;;14.10;55.80;;;;;;5067814;28;20513;-82
2022/01/11 02:38:30;;;;;;;11.00;8.03;;;14.10;55.80;;;;;;5064231;28;20493;-82
2022/01/11 02:40:59;;;;;;;9.87;7.57;;;14.00;55.70;;;;;;5067606;28;20454;-82
2022/01/11 02:43:26;;;;;;;11.80;7.03;;;14.00;55.90;;;;;;5066502;28;20427;-82
2022/01/11 02:45:55;;;;;;;13.73;8.30;;;14.00;55.70;;;;;;5048703;28;20491;-82
2022/01/11 02:48:23;;;;;;;11.00;7.90;;;14.00;55.90;;;;;;5064668;28;20505;-84
2022/01/11 02:50:51;;;;;;;12.77;8.07;;;14.00;56.00;;;;;;5066497;28;20501;-82
2022/01/11 02:53:20;;;;;;;11.17;7.70;;;14.00;55.90;;;;;;5064891;28;20438;-82
2022/01/11 02:55:48;;;;;;;10.97;8.03;;;14.00;55.90;;;;;;5061868;28;20454;-82
2022/01/11 02:58:17;;;;;;;10.50;8.10;;;14.00;55.80;;;;;;5065396;28;20454;-83
2022/01/11 03:00:45;;;;;;;11.90;8.20;;;14.00;55.60;;;;;;5057206;28;20479;-82
2022/01/11 03:03:14;;;;;;;11.33;7.97;;;14.00;55.80;;;;;;5064129;28;20435;-82
2022/01/11 03:05:46;;;;;;;12.87;8.10;;;14.00;55.70;;;;;;5064255;28;20427;-82
2022/01/11 03:08:14;;;;;;;12.53;7.47;;;13.90;55.70;;;;;;5066375;28;20466;-83
2022/01/11 03:10:43;;;;;;;9.70;7.80;;;14.00;55.90;;;;;;5067968;28;20479;-82
2022/01/11 03:13:12;;;;;;;14.57;7.83;;;13.90;55.80;;;;;;5067710;28;20450;-84
2022/01/11 03:15:40;;;;;;;11.10;7.73;;;13.90;55.60;;;;;;5067518;28;20485;-82
2022/01/11 03:18:09;;;;;;;9.83;7.70;;;13.90;55.60;;;;;;5066001;28;20508;-82
2022/01/11 03:20:37;;;;;;;9.80;7.20;;;13.90;55.70;;;;;;5053822;28;20477;-83
2022/01/11 03:23:05;;;;;;;9.10;7.10;;;13.90;55.70;;;;;;5067033;28;20455;-82
2022/01/11 03:25:34;;;;;;;8.87;7.13;;;13.90;55.60;;;;;;5066839;28;20435;-82
2022/01/11 03:28:04;;;;;;;9.73;7.40;;;13.90;55.70;;;;;;5066538;28;20466;-85
2022/01/11 03:30:33;;;;;;;11.50;7.90;;;13.90;55.80;;;;;;5065809;28;20497;-82
2022/01/11 03:33:01;;;;;;;12.50;8.30;;;13.80;55.70;;;;;;5066586;28;20446;-84
2022/01/11 03:35:29;;;;;;;10.40;7.57;;;13.90;55.80;;;;;;5065929;28;20451;-82
2022/01/11 03:37:58;;;;;;;11.07;7.80;;;13.90;55.90;;;;;;5054836;28;20427;-82
2022/01/11 03:40:26;;;;;;;11.57;7.40;;;13.90;55.70;;;;;;5067641;28;20458;-82
2022/01/11 03:42:55;;;;;;;11.70;8.20;;;13.90;55.60;;;;;;5067199;28;20470;-83
2022/01/11 03:45:24;;;;;;;9.00;6.97;;;13.80;55.60;;;;;;5067535;28;20457;-83
2022/01/11 03:47:53;;;;;;;10.07;8.00;;;13.80;55.60;;;;;;5066575;28;20493;-86
2022/01/11 03:50:21;;;;;;;10.87;7.80;;;13.90;55.80;;;;;;5066106;28;20470;-83
2022/01/11 03:52:58;;;;;;;8.10;6.43;;;13.90;55.80;;;;;;5066448;28;20447;-83
2022/01/11 03:55:43;;;;;;;10.60;7.27;;;13.80;55.70;;;;;;5050582;28;20449;-82
2022/01/11 03:58:11;;;;;;;21.00;7.37;;;13.80;55.60;;;;;;5066596;28;20430;-83
2022/01/11 04:00:41;;;;;;;11.13;7.70;;;13.80;55.80;;;;;;5065569;28;20477;-83
2022/01/11 04:03:10;;;;;;;10.17;7.40;;;13.80;56.00;;;;;;5066010;28;20446;-83
2022/01/11 04:05:41;;;;;;;10.50;7.43;;;13.80;55.80;;;;;;5066441;28;20961;-82
2022/01/11 04:08:09;;;;;;;10.10;7.53;;;13.80;55.70;;;;;;5068606;28;20467;-83
2022/01/11 04:10:37;;;;;;;9.23;7.20;;;13.80;55.70;;;;;;5069496;28;20446;-82
2022/01/11 04:13:05;;;;;;;9.80;7.73;;;13.80;55.60;;;;;;5070022;28;20446;-82
2022/01/11 04:15:33;;;;;;;7.80;6.50;;;13.90;55.80;;;;;;5070438;28;20468;-81
2022/01/11 04:18:03;;;;;;;11.07;7.70;;;13.80;55.70;;;;;;5070157;28;20435;-81
2022/01/11 04:20:31;;;;;;;9.17;7.03;;;13.80;55.60;;;;;;5070101;28;20473;-81
2022/01/11 04:23:00;;;;;;;11.73;8.80;;;13.70;55.60;;;;;;5069126;28;20442;-83
2022/01/11 04:25:27;;;;;;;8.90;6.90;;;13.80;55.80;;;;;;5070108;28;20446;-81
2022/01/11 04:27:56;;;;;;;12.90;7.40;;;13.80;55.70;;;;;;5069829;28;20484;-84
2022/01/11 04:30:24;;;;;;;11.00;7.00;;;13.80;55.80;;;;;;5059980;28;20570;-81
2022/01/11 04:32:53;;;;;;;12.63;8.43;;;13.80;55.70;;;;;;5064054;28;20426;-81
2022/01/11 04:35:22;;;;;;;9.37;7.50;;;13.80;55.60;;;;;;5069364;28;20442;-81
2022/01/11 04:37:50;;;;;;;10.40;7.83;;;13.80;55.70;;;;;;5068820;28;20450;-82
2022/01/11 04:40:18;;;;;;;10.37;7.57;;;13.80;55.70;;;;;;5068136;28;20484;-81
2022/01/11 04:42:47;;;;;;;9.43;7.50;;;13.70;55.60;;;;;;5068744;28;20478;-82
2022/01/11 04:45:15;;;;;;;12.50;7.90;;;13.70;55.80;;;;;;5068895;28;20427;-82
2022/01/11 04:47:45;;;;;;;9.07;7.23;;;13.80;55.80;;;;;;5056874;28;20467;-81
2022/01/11 04:50:13;;;;;;;9.30;7.37;;;13.80;55.80;;;;;;5066449;28;20459;-83
2022/01/11 04:52:42;;;;;;;10.33;7.60;;;13.80;55.80;;;;;;5068458;28;20450;-81
2022/01/11 04:55:11;;;;;;;12.47;8.00;;;13.80;55.80;;;;;;5068708;28;20447;-80
2022/01/11 04:57:44;;;;;;;9.03;7.50;;;13.80;55.70;;;;;;5069331;28;20439;-81
2022/01/11 05:00:12;;;;;;;10.40;7.80;;;13.80;56.30;;;;;;5067195;28;20462;-82
2022/01/11 05:02:40;;;;;;;11.63;7.83;;;13.80;55.80;;;;;;5063947;28;20505;-80
2022/01/11 05:05:09;;;;;;;10.57;7.90;;;13.80;55.80;;;;;;5067847;28;20435;-81
2022/01/11 05:07:44;;;;;;;10.47;7.50;;;13.80;55.70;;;;;;5061778;28;20540;-82
2022/01/11 05:10:12;;;;;;;10.00;7.90;;;13.80;55.70;;;;;;5069515;28;20463;-81
2022/01/11 05:12:40;;;;;;;12.03;8.00;;;13.70;55.70;;;;;;5068767;28;20442;-82
2022/01/11 05:15:09;;;;;;;11.10;7.47;;;13.70;55.80;;;;;;5067447;28;20469;-82
2022/01/11 05:17:37;;;;;;;10.27;7.33;;;13.80;55.80;;;;;;5068888;28;20478;-80
2022/01/11 05:20:06;;;;;;;11.37;7.73;;;13.70;55.80;;;;;;5067932;28;20470;-81
2022/01/11 05:22:34;;;;;;;10.37;7.93;;;13.70;55.80;;;;;;5067657;28;20453;-82
2022/01/11 05:25:04;;;;;;;10.23;7.67;;;13.70;55.70;;;;;;5068718;28;20443;-81
2022/01/11 05:27:32;;;;;;;10.50;8.07;;;13.70;55.60;;;;;;5067884;28;20934;-83
2022/01/11 05:30:00;;;;;;;10.33;7.33;;;13.60;55.60;;;;;;5067389;28;20469;-81
2022/01/11 05:32:29;;;;;;;11.07;8.27;;;13.60;55.60;;;;;;5068515;28;20447;-81
2022/01/11 05:34:58;;;;;;;10.83;8.10;;;13.70;55.70;;;;;;5067577;28;20461;-80
2022/01/11 05:37:26;;;;;;;9.13;7.33;;;13.60;55.60;;;;;;5067365;28;20446;-81
2022/01/11 05:39:54;;;;;;;9.10;7.27;;;13.60;55.60;;;;;;5065566;28;20474;-81
2022/01/11 05:42:24;;;;;;;10.87;7.97;;;13.60;55.70;;;;;;5067703;28;20428;-81
2022/01/11 05:44:52;;;;;;;9.10;7.47;;;13.60;55.60;;;;;;5068234;28;20457;-82
2022/01/11 05:47:21;;;;;;;11.90;8.10;;;13.60;55.70;;;;;;5067411;28;20451;-81
2022/01/11 05:49:50;;;;;;;10.33;8.10;;;13.60;55.70;;;;;;5067219;28;20501;-81
2022/01/11 05:52:17;;;;;;;11.33;8.50;;;13.60;55.70;;;;;;5065299;28;20463;-81
2022/01/11 05:54:46;;;;;;;10.70;7.57;;;13.60;55.50;;;;;;5066968;28;20454;-80
2022/01/11 05:57:14;;;;;;;12.23;8.37;;;13.60;55.60;;;;;;5052881;28;20452;-80
2022/01/11 05:59:43;;;;;;;12.00;8.40;;;13.50;55.60;;;;;;5067340;28;20458;-81
2022/01/11 06:02:11;;;;;;;12.20;8.63;;;13.60;55.80;;;;;;5067053;28;20506;-80
2022/01/11 06:04:39;;;;;;;10.37;7.83;;;13.50;55.30;;;;;;5066873;28;20449;-82
2022/01/11 06:07:07;;;;;;;8.93;8.00;;;13.50;55.60;;;;;;5067277;28;20443;-80
2022/01/11 06:09:35;;;;;;;11.10;8.27;;;13.60;55.70;;;;;;5066599;28;20474;-82
2022/01/11 06:12:04;;;;;;;11.27;8.20;;;13.50;55.50;;;;;;5066598;28;20431;-82
2022/01/11 06:14:32;;;;;;;8.80;7.30;;;13.50;55.50;;;;;;5062850;28;20459;-81
2022/01/11 06:17:02;;;;;;;13.10;8.60;;;13.50;55.40;;;;;;5063530;28;20469;-80
2022/01/11 06:19:31;;;;;;;10.97;8.30;;;13.50;55.50;;;;;;5067254;28;20459;-81
2022/01/11 06:21:59;;;;;;;11.00;8.10;;;13.50;55.30;;;;;;5067317;28;20447;-81
2022/01/11 06:24:27;;;;;;;11.70;8.37;;;13.50;55.40;;;;;;5067819;28;20461;-82
2022/01/11 06:26:55;;;;;;;10.93;8.00;;;13.50;55.40;;;;;;5066609;28;20446;-82
2022/01/11 06:29:24;;;;;;;11.63;8.10;;;13.40;55.40;;;;;;5066261;28;20478;-81
2022/01/11 06:31:52;;;;;;;12.63;8.17;;;13.40;55.40;;;;;;5060521;28;20463;-81
2022/01/11 06:34:21;;;;;;;12.80;8.87;;;13.50;55.50;;;;;;5062888;28;20443;-81
2022/01/11 06:36:49;;;;;;;10.93;8.13;;;13.40;55.30;;;;;;5064776;28;20478;-81
2022/01/11 06:39:18;;;;;;;11.77;8.50;;;13.40;55.40;;;;;;5063976;28;20529;-81
2022/01/11 06:41:46;;;;;;;11.80;8.23;;;13.40;55.30;;;;;;5064583;28;20457;-81
2022/01/11 06:44:15;;;;;;;13.20;8.40;;;13.40;55.30;;;;;;5064173;28;20485;-80
2022/01/11 06:46:42;;;;;;;11.80;8.63;;;13.40;55.30;;;;;;5063437;28;20453;-81
2022/01/11 06:49:10;;;;;;;13.90;9.27;;;13.40;55.20;;;;;;5051183;28;20545;-81
2022/01/11 06:51:40;;;;;;;13.10;8.60;;;13.40;55.20;;;;;;5066559;28;20447;-82
2022/01/11 06:54:07;;;;;;;11.63;8.53;;;13.40;55.20;;;;;;5065962;28;20427;-81
2022/01/11 06:56:36;;;;;;;11.27;8.13;;;13.40;55.30;;;;;;5065945;28;20466;-81
2022/01/11 06:59:03;;;;;;;14.03;9.23;;;13.40;55.20;;;;;;5065097;28;20439;-81
2022/01/11 07:01:32;;;;;;;12.03;8.20;;;13.30;55.10;;;;;;5065845;28;20438;-81
2022/01/11 07:04:00;;;;;;;12.87;8.50;;;13.30;55.10;;;;;;5066408;28;20469;-82
2022/01/11 07:06:28;;;;;;;13.77;8.83;;;13.30;55.20;;;;;;5053762;28;20459;-81
2022/01/11 07:08:57;;;;;;;14.13;9.57;;;13.30;55.30;;;;;;5061312;28;20520;-81
2022/01/11 07:11:25;;;;;;;12.27;8.60;;;13.30;55.20;;;;;;5067074;28;20431;-81
2022/01/11 07:13:53;;;;;;;12.33;8.90;;;13.30;54.90;;;;;;5066076;28;20517;-81
2022/01/11 07:16:22;;;;;;;12.80;9.33;;;13.30;55.00;;;;;;5065942;28;20434;-81
2022/01/11 07:18:50;;;;;;;13.73;9.03;;;13.30;55.10;;;;;;5065703;28;20474;-81
2022/01/11 07:21:18;;;;;;;12.93;9.00;;;13.30;55.00;;;;;;5065513;28;20480;-81
2022/01/11 07:23:46;;;;;;;14.73;9.40;;;13.30;55.00;;;;;;5065819;28;20461;-81
2022/01/11 07:26:15;;;;;;;16.20;9.50;;;13.30;54.90;;;;;;5066337;28;20426;-81
2022/01/11 07:28:43;;;;;;;13.77;8.73;;;13.20;54.90;;;;;;5066149;28;20508;-81
2022/01/11 07:31:11;;;;;;;14.17;9.20;;;13.20;54.90;;;;;;5066092;28;20437;-82
2022/01/11 07:33:39;;;;;;;12.83;9.10;;;13.20;54.90;;;;;;5066001;28;20504;-81
2022/01/11 07:36:08;;;;;;;12.63;8.43;;;13.20;54.80;;;;;;5065932;28;20443;-81
2022/01/11 07:38:36;;;;;;;12.77;9.47;;;13.20;54.80;;;;;;5062383;28;20457;-82
2022/01/11 07:41:05;;;;;;;15.13;9.07;;;13.20;54.90;;;;;;5052740;28;20455;-81
2022/01/11 07:43:34;;;;;;;12.73;9.00;;;13.20;54.80;;;;;;5068732;28;20473;-80
2022/01/11 07:46:02;;;;;;;13.80;8.60;;;13.20;55.00;;;;;;5068334;28;20921;-80
2022/01/11 07:48:31;;;;;;;13.03;8.87;;;13.20;54.90;;;;;;5068708;28;20426;-80
2022/01/11 07:50:59;;;;;;;12.23;8.77;;;13.20;55.00;;;;;;5067914;28;20470;-80
2022/01/11 07:53:27;;;;;;;14.97;9.17;;;13.20;54.90;;;;;;5067734;28;20426;-80
2022/01/11 07:55:55;;;;;;;13.93;9.20;;;13.20;54.90;;;;;;5052596;28;20439;-80
2022/01/11 07:58:23;;;;;;;18.93;9.73;;;13.20;54.80;;;;;;5066012;28;20477;-80
2022/01/11 08:00:52;;;;;;;15.10;9.70;;;13.20;54.80;;;;;;5066814;28;20552;-80
2022/01/11 08:03:20;;;;;;;12.63;8.50;;;13.20;54.60;;;;;;5066909;28;20447;-81
2022/01/11 08:05:50;;;;;;;13.97;9.10;;;13.10;54.70;;;;;;5067085;28;20439;-80
2022/01/11 08:08:18;;;;;;;13.13;8.73;;;13.20;54.70;;;;;;5067290;28;20467;-80
2022/01/11 08:10:46;;;;;;;13.30;8.80;;;13.20;54.70;;;;;;5067107;28;20466;-81
2022/01/11 08:13:15;;;;;;;12.03;8.53;;;13.20;54.60;;;;;;5065403;28;20477;-81
2022/01/11 08:15:44;;;;;;;14.10;8.80;;;13.20;54.70;;;;;;5066247;28;20451;-80
2022/01/11 08:18:13;;;;;;;17.13;9.27;;;13.10;54.60;;;;;;5066248;28;20450;-80
2022/01/11 08:20:41;;;;;;;14.67;9.10;;;13.10;54.70;;;;;;5066604;28;20516;-81
2022/01/11 08:23:09;;;;;;;13.87;8.20;;;13.10;54.50;;;;;;5067925;28;20450;-81
2022/01/11 08:25:37;;;;;;;13.03;8.93;;;13.20;55.20;;;;;;5066864;28;20429;-82
2022/01/11 08:28:05;;;;;;;15.97;8.80;;;13.20;54.60;;;;;;5065313;28;20450;-81
2022/01/11 08:30:36;;;;;;;14.50;9.30;;;13.20;54.40;;;;;;5063673;28;20799;-80
2022/01/11 08:33:05;;;;;;;15.27;9.70;;;13.20;54.70;;;;;;5065847;28;20441;-80
2022/01/11 08:35:35;;;;;;;12.77;9.30;;;13.20;54.40;;;;;;5065305;28;20461;-82
2022/01/11 08:38:05;;;;;;;15.50;9.60;;;13.30;54.50;;;;;;5065634;28;20477;-80
2022/01/11 08:40:32;;;;;;;13.50;8.70;;;13.30;54.40;;;;;;5066015;28;20443;-80
2022/01/11 08:43:03;;;;;;;14.00;9.13;;;13.30;54.40;;;;;;5066328;28;20513;-80
2022/01/11 08:45:31;;;;;;;15.27;9.70;;;13.30;54.40;;;;;;5064566;28;20522;-80
2022/01/11 08:47:59;;;;;;;13.37;9.03;;;13.50;54.70;;;;;;5054006;28;20502;-81
2022/01/11 08:50:28;;;;;;;12.70;8.47;;;13.50;54.50;;;;;;5066224;28;20482;-81
2022/01/11 08:52:58;;;;;;;16.60;9.97;;;13.60;54.80;;;;;;5066225;28;20431;-81
2022/01/11 08:55:26;;;;;;;16.97;10.30;;;13.70;54.80;;;;;;5067693;28;20488;-81
2022/01/11 08:57:54;;;;;;;14.80;9.17;;;13.90;54.80;;;;;;5068083;28;20431;-81
2022/01/11 09:00:23;;;;;;;13.20;8.77;;;14.00;54.90;;;;;;5067989;28;20442;-81
2022/01/11 09:02:51;;;;;;;13.03;8.93;;;14.10;54.90;;;;;;5067774;28;20458;-81
2022/01/11 09:05:20;;;;;;;13.67;9.17;;;14.30;54.90;;;;;;5053545;28;20459;-80
2022/01/11 09:07:48;;;;;;;15.50;9.53;;;14.50;55.00;;;;;;5067685;28;20477;-81
2022/01/11 09:10:17;;;;;;;12.90;9.43;;;14.70;54.90;;;;;;5067361;28;20481;-81
2022/01/11 09:12:45;;;;;;;13.37;9.87;;;14.80;54.80;;;;;;5067892;28;20485;-81
2022/01/11 09:15:14;;;;;;;13.70;9.53;;;15.00;55.00;;;;;;5067585;28;20469;-80
2022/01/11 09:17:43;;;;;;;14.60;9.53;;;15.20;54.90;;;;;;5067897;28;20434;-81
2022/01/11 09:20:12;;;;;;;17.17;10.00;;;15.20;54.90;;;;;;5067492;28;20493;-80
2022/01/11 09:22:40;;;;;;;15.83;10.57;;;15.30;55.00;;;;;;5055480;28;20486;-81
2022/01/11 09:25:09;;;;;;;17.53;10.93;;;15.40;55.10;;;;;;5062067;28;20470;-81
2022/01/11 09:27:39;;;;;;;17.53;10.63;;;15.50;55.10;;;;;;5058306;28;20439;-80
2022/01/11 09:30:08;;;;;;;13.90;9.97;;;15.50;55.00;;;;;;5056510;28;20475;-81
2022/01/11 09:32:37;;;;;;;16.60;10.70;;;15.60;55.20;;;;;;5046165;28;20468;-81
2022/01/11 09:35:06;;;;;;;11.93;9.37;;;15.70;55.30;;;;;;5047127;28;20455;-81
2022/01/11 09:37:34;;;;;;;13.10;9.77;;;15.70;55.30;;;;;;5048181;28;20467;-81
2022/01/11 09:40:02;;;;;;;16.70;10.57;;;15.70;55.10;;;;;;5054350;28;20477;-81
2022/01/11 09:42:30;;;;;;;14.27;10.17;;;15.80;55.20;;;;;;5062422;28;20466;-81
2022/01/11 09:45:01;;;;;;;14.67;9.97;;;15.80;55.30;;;;;;5057339;28;20440;-81
2022/01/11 09:47:29;;;;;;;16.67;10.80;;;15.90;55.40;;;;;;5056484;28;20443;-83
2022/01/11 09:49:57;;;;;;;16.97;10.80;;;15.90;55.30;;;;;;5058294;28;20455;-82
2022/01/11 09:52:26;;;;;;;18.57;11.23;;;16.00;55.40;;;;;;5056997;28;20460;-81
2022/01/11 09:54:55;;;;;;;17.03;11.03;;;16.00;55.40;;;;;;5057330;28;20414;-81
2022/01/11 09:57:23;;;;;;;16.97;10.77;;;16.10;55.40;;;;;;5059851;28;20446;-82
2022/01/11 09:59:51;;;;;;;19.77;11.23;;;16.20;55.40;;;;;;5067495;28;20462;-82
2022/01/11 10:02:21;;;;;;;18.30;11.20;;;16.30;55.50;;;;;;5059496;28;20438;-84
2022/01/11 10:04:56;;;;;;;20.33;10.80;;;16.60;55.50;;;;;;5060392;28;20439;-81
2022/01/11 10:07:28;;;;;;;18.20;11.70;;;16.80;55.50;;;;;;5049759;28;20454;-85
2022/01/11 10:09:56;;;;;;;15.20;10.43;;;17.00;55.70;;;;;;5066271;28;20462;-82
2022/01/11 10:12:25;;;;;;;17.30;11.33;;;17.30;55.60;;;;;;5060181;28;20471;-82
2022/01/11 10:14:53;;;;;;;19.50;11.30;;;17.60;55.70;;;;;;5062373;28;20452;-82
2022/01/11 10:17:24;;;;;;;16.60;11.07;;;17.90;55.80;;;;;;5065360;28;20449;-81
2022/01/11 10:20:01;;;;;;;15.30;9.60;;;18.10;55.80;;;;;;5067780;28;20508;-82
2022/01/11 10:22:30;;;;;;;20.20;11.30;;;18.40;55.90;;;;;;5065941;28;20438;-81
2022/01/11 10:24:58;;;;;;;16.03;10.40;;;18.60;56.00;;;;;;5065712;28;20485;-81
2022/01/11 10:27:29;;;;;;;17.27;10.70;;;18.90;56.00;;;;;;5068547;28;20473;-82
2022/01/11 10:29:58;;;;;;;17.47;10.80;;;19.10;56.30;;;;;;5066976;28;20477;-82
2022/01/11 10:32:30;;;;;;;14.20;10.20;;;19.30;56.50;;;;;;5064962;28;20471;-81
2022/01/11 10:34:59;;;;;;;17.20;10.73;;;19.50;56.50;;;;;;5066188;28;20450;-81
2022/01/11 10:37:34;;;;;;;16.53;10.60;;;19.70;56.70;;;;;;5066878;28;20455;-82
2022/01/11 10:40:09;;;;;;;13.97;10.07;;;19.90;56.80;;;;;;5066615;28;20505;-84
2022/01/11 10:42:38;;;;;;;14.10;9.90;;;20.00;56.70;;;;;;5064607;28;20438;-82
2022/01/11 10:45:07;;;;;;;16.40;9.70;;;20.10;56.80;;;;;;5063683;28;20854;-81
2022/01/11 10:47:37;;;;;;;13.83;9.93;;;20.10;56.80;;;;;;5066443;28;20446;-83
2022/01/11 10:50:08;;;;;;;17.13;9.60;;;20.20;56.90;;;;;;5062612;28;20471;-83
2022/01/11 10:52:36;;;;;;;13.10;9.53;;;20.20;56.90;;;;;;5064042;28;20470;-80
2022/01/11 10:55:05;;;;;;;12.50;8.43;;;20.40;57.00;;;;;;5065846;28;20442;-81
2022/01/11 10:57:36;;;;;;;14.30;9.20;;;20.50;56.90;;;;;;5063828;28;20466;-80
2022/01/11 11:00:16;;;;;;;13.77;8.97;;;20.50;56.60;;;;;;5063893;28;20451;-81
2022/01/11 11:02:49;;;;;;;10.07;8.40;;;20.50;56.60;;;;;;5063716;28;20427;-82
2022/01/11 11:05:20;;;;;;;13.07;8.90;;;20.50;56.70;;;;;;5063715;28;20477;-81
2022/01/11 11:08:02;;;;;;;11.07;8.10;;;20.50;56.80;;;;;;5066284;28;20439;-81
2022/01/11 11:10:36;;;;;;;13.33;8.23;;;20.60;56.90;;;;;;5046330;28;20439;-80
2022/01/11 11:13:05;;;;;;;11.77;8.23;;;20.90;57.10;;;;;;5061820;28;20439;-83
2022/01/11 11:15:34;;;;;;;12.63;8.30;;;21.20;57.00;;;;;;5064806;28;20446;-82
2022/01/11 11:18:26;;;;;;;9.97;7.67;;;21.60;57.00;;;;;;5065422;28;20409;-81
2022/01/11 11:20:54;;;;;;;12.80;8.53;;;22.00;56.90;;;;;;5066949;28;20470;-83
2022/01/11 11:23:22;;;;;;;12.03;7.80;;;22.30;56.80;;;;;;5065465;28;20507;-83
2022/01/11 11:25:50;;;;;;;11.03;7.67;;;22.70;56.70;;;;;;5059634;28;20442;-81
2022/01/11 11:28:21;;;;;;;10.33;8.07;;;22.90;56.60;;;;;;5066264;28;20424;-83
2022/01/11 11:30:49;;;;;;;10.77;8.20;;;23.20;56.60;;;;;;5066195;28;20474;-83
2022/01/11 11:33:21;;;;;;;8.50;7.23;;;23.50;56.50;;;;;;5061768;28;20447;-81
2022/01/11 11:35:50;;;;;;;10.93;7.70;;;23.80;56.30;;;;;;5063975;28;20451;-81
2022/01/11 11:38:18;;;;;;;9.33;7.57;;;23.70;56.30;;;;;;5063805;28;20983;-81
2022/01/11 11:40:50;;;;;;;13.33;8.53;;;23.70;55.90;;;;;;5064801;28;20466;-83
2022/01/11 11:43:18;;;;;;;11.33;8.20;;;23.70;56.20;;;;;;5066769;28;20437;-81
2022/01/11 11:45:46;;;;;;;10.73;7.50;;;23.60;56.00;;;;;;5065548;28;20430;-81
2022/01/11 11:48:15;;;;;;;9.27;7.13;;;23.40;56.00;;;;;;5064830;28;20447;-82
2022/01/11 11:50:52;;;;;;;8.90;7.07;;;23.20;56.00;;;;;;5065233;28;20433;-81
2022/01/11 11:53:22;;;;;;;11.37;7.27;;;23.10;56.00;;;;;;5065282;28;20449;-80
2022/01/11 11:55:50;;;;;;;11.40;7.37;;;22.80;56.00;;;;;;5061721;28;20427;-80
2022/01/11 11:58:22;;;;;;;8.87;7.00;;;22.60;56.20;;;;;;5053379;28;20426;-80
2022/01/11 12:00:51;;;;;;;11.83;7.33;;;22.30;56.00;;;;;;5057639;28;20467;-80
2022/01/11 12:03:22;;;;;;;7.90;6.80;;;22.00;56.10;;;;;;5047984;28;20450;-81
2022/01/11 12:05:52;;;;;;;9.87;6.93;;;21.80;55.90;;;;;;5043490;28;20478;-81
2022/01/11 12:08:32;;;;;;;14.60;8.00;;;21.60;56.00;;;;;;5053663;28;20506;-81
2022/01/11 12:11:02;;;;;;;14.03;7.73;;;21.30;55.80;;;;;;5052848;28;20520;-79
2022/01/11 12:13:44;;;;;;;8.90;6.60;;;21.10;55.60;;;;;;5052071;28;20517;-80
2022/01/11 12:16:39;;;;;;;10.53;6.93;;;20.90;55.70;;;;;;5049417;28;20490;-79
2022/01/11 12:19:09;;;;;;;10.37;7.43;;;20.80;55.80;;;;;;5050732;28;20563;-80
2022/01/11 12:21:55;;;;;;;11.73;7.43;;;20.60;55.80;;;;;;5054830;28;20417;-80
2022/01/11 12:24:34;;;;;;;9.00;6.97;;;20.50;55.70;;;;;;5052809;28;20439;-80
2022/01/11 12:27:01;;;;;;;10.43;7.70;;;20.40;55.60;;;;;;5053677;28;20438;-80
2022/01/11 12:29:29;;;;;;;10.97;6.97;;;20.30;55.50;;;;;;5053871;28;20474;-80
2022/01/11 12:31:59;;;;;;;9.70;6.77;;;20.20;55.40;;;;;;5055522;28;20480;-80
2022/01/11 12:34:53;;;;;;;8.53;6.60;;;20.10;55.30;;;;;;5056260;28;20458;-79
2022/01/11 12:37:34;;;;;;;8.77;6.87;;;20.10;55.10;;;;;;5055623;28;20446;-80
2022/01/11 12:40:09;;;;;;;11.43;6.53;;;20.10;55.10;;;;;;5058381;28;20533;-82
2022/01/11 12:42:39;;;;;;;10.20;6.60;;;20.10;55.00;;;;;;5058454;28;20438;-80
2022/01/11 12:47:53;;;;;;;8.07;6.20;;;20.10;54.80;;;;;;5059957;28;20447;-80
2022/01/11 12:50:21;;;;;;;11.37;6.80;;;20.20;55.00;;;;;;5051243;28;20479;-80
2022/01/11 12:52:56;;;;;;;10.13;7.30;;;20.30;55.00;;;;;;5056578;28;21103;-81
2022/01/11 12:55:24;;;;;;;9.70;6.23;;;20.30;54.70;;;;;;5060588;28;20461;-80